sensor_id;sensor_type;location;lat;lon;timestamp;P1;durP1;ratioP1;P2;durP2;ratioP2
21036;SDS011;10677;50.942;4.028;2022-07-23T00:00:32;16.73;;;11.63;;
21036;SDS011;10677;50.942;4.028;2022-07-23T00:02:58;15.20;;;11.82;;
21036;SDS011;10677;50.942;4.028;2022-07-23T00:05:24;19.67;;;11.85;;
21036;SDS011;10677;50.942;4.028;2022-07-23T00:07:50;17.00;;;11.15;;
21036;SDS011;10677;50.942;4.028;2022-07-23T00:10:15;22.55;;;12.30;;
21036;SDS011;10677;50.942;4.028;2022-07-23T00:12:41;19.88;;;12.60;;
21036;SDS011;10677;50.942;4.028;2022-07-23T00:15:07;19.27;;;12.50;;
21036;SDS011;10677;50.942;4.028;2022-07-23T00:17:33;15.93;;;11.25;;
21036;SDS011;10677;50.942;4.028;2022-07-23T00:19:59;18.73;;;11.35;;
21036;SDS011;10677;50.942;4.028;2022-07-23T00:22:25;17.02;;;11.60;;
21036;SDS011;10677;50.942;4.028;2022-07-23T00:24:51;17.15;;;11.98;;
21036;SDS011;10677;50.942;4.028;2022-07-23T00:27:16;17.67;;;11.75;;
21036;SDS011;10677;50.942;4.028;2022-07-23T00:29:42;18.58;;;12.95;;
21036;SDS011;10677;50.942;4.028;2022-07-23T00:32:08;19.55;;;12.13;;
21036;SDS011;10677;50.942;4.028;2022-07-23T00:34:33;25.25;;;13.95;;
21036;SDS011;10677;50.942;4.028;2022-07-23T00:36:59;18.60;;;14.10;;
21036;SDS011;10677;50.942;4.028;2022-07-23T00:39:24;20.42;;;14.02;;
21036;SDS011;10677;50.942;4.028;2022-07-23T00:41:50;21.10;;;13.88;;
21036;SDS011;10677;50.942;4.028;2022-07-23T00:44:21;20.80;;;14.73;;
21036;SDS011;10677;50.942;4.028;2022-07-23T00:46:52;18.02;;;15.35;;
21036;SDS011;10677;50.942;4.028;2022-07-23T00:49:20;23.73;;;15.70;;
21036;SDS011;10677;50.942;4.028;2022-07-23T00:51:47;20.73;;;15.00;;
21036;SDS011;10677;50.942;4.028;2022-07-23T00:54:14;22.08;;;15.15;;
21036;SDS011;10677;50.942;4.028;2022-07-23T00:56:41;20.02;;;15.38;;
21036;SDS011;10677;50.942;4.028;2022-07-23T00:59:08;19.10;;;14.57;;
21036;SDS011;10677;50.942;4.028;2022-07-23T01:01:34;19.92;;;15.18;;
21036;SDS011;10677;50.942;4.028;2022-07-23T01:03:59;18.75;;;14.63;;
21036;SDS011;10677;50.942;4.028;2022-07-23T01:06:25;21.95;;;14.98;;
21036;SDS011;10677;50.942;4.028;2022-07-23T01:08:51;21.40;;;15.63;;
21036;SDS011;10677;50.942;4.028;2022-07-23T01:11:17;19.90;;;15.93;;
21036;SDS011;10677;50.942;4.028;2022-07-23T01:13:44;23.55;;;16.30;;
21036;SDS011;10677;50.942;4.028;2022-07-23T01:16:10;22.10;;;15.65;;
21036;SDS011;10677;50.942;4.028;2022-07-23T01:18:35;24.50;;;15.80;;
21036;SDS011;10677;50.942;4.028;2022-07-23T01:21:01;19.33;;;15.25;;
21036;SDS011;10677;50.942;4.028;2022-07-23T01:23:27;23.75;;;14.88;;
21036;SDS011;10677;50.942;4.028;2022-07-23T01:25:52;20.60;;;14.55;;
21036;SDS011;10677;50.942;4.028;2022-07-23T01:28:19;19.92;;;14.23;;
21036;SDS011;10677;50.942;4.028;2022-07-23T01:30:46;22.83;;;15.80;;
21036;SDS011;10677;50.942;4.028;2022-07-23T01:33:13;21.98;;;14.77;;
21036;SDS011;10677;50.942;4.028;2022-07-23T01:35:39;20.95;;;14.77;;
21036;SDS011;10677;50.942;4.028;2022-07-23T01:38:05;23.13;;;14.65;;
21036;SDS011;10677;50.942;4.028;2022-07-23T01:40:30;21.52;;;15.65;;
21036;SDS011;10677;50.942;4.028;2022-07-23T01:42:56;20.90;;;15.10;;
21036;SDS011;10677;50.942;4.028;2022-07-23T01:45:21;21.65;;;15.25;;
21036;SDS011;10677;50.942;4.028;2022-07-23T01:47:47;27.58;;;16.05;;
21036;SDS011;10677;50.942;4.028;2022-07-23T01:50:13;19.98;;;15.45;;
21036;SDS011;10677;50.942;4.028;2022-07-23T01:52:39;20.65;;;15.25;;
21036;SDS011;10677;50.942;4.028;2022-07-23T01:55:05;23.73;;;14.60;;
21036;SDS011;10677;50.942;4.028;2022-07-23T01:57:32;17.52;;;14.02;;
21036;SDS011;10677;50.942;4.028;2022-07-23T01:59:57;21.55;;;15.70;;
21036;SDS011;10677;50.942;4.028;2022-07-23T02:02:23;21.00;;;15.05;;
21036;SDS011;10677;50.942;4.028;2022-07-23T02:04:49;19.50;;;14.48;;
21036;SDS011;10677;50.942;4.028;2022-07-23T02:07:15;20.08;;;15.35;;
21036;SDS011;10677;50.942;4.028;2022-07-23T02:09:40;20.23;;;16.02;;
21036;SDS011;10677;50.942;4.028;2022-07-23T02:12:06;21.92;;;16.08;;
21036;SDS011;10677;50.942;4.028;2022-07-23T02:14:32;26.70;;;18.02;;
21036;SDS011;10677;50.942;4.028;2022-07-23T02:16:57;20.83;;;16.58;;
21036;SDS011;10677;50.942;4.028;2022-07-23T02:19:23;24.48;;;16.13;;
21036;SDS011;10677;50.942;4.028;2022-07-23T02:21:49;21.55;;;15.88;;
21036;SDS011;10677;50.942;4.028;2022-07-23T02:24:14;23.27;;;15.93;;
21036;SDS011;10677;50.942;4.028;2022-07-23T02:26:41;29.83;;;17.05;;
21036;SDS011;10677;50.942;4.028;2022-07-23T02:29:07;23.73;;;16.48;;
21036;SDS011;10677;50.942;4.028;2022-07-23T02:31:33;23.58;;;16.23;;
21036;SDS011;10677;50.942;4.028;2022-07-23T02:33:59;22.42;;;16.30;;
21036;SDS011;10677;50.942;4.028;2022-07-23T02:36:25;21.70;;;16.63;;
21036;SDS011;10677;50.942;4.028;2022-07-23T02:38:50;19.42;;;15.50;;
21036;SDS011;10677;50.942;4.028;2022-07-23T02:41:16;24.50;;;15.95;;
21036;SDS011;10677;50.942;4.028;2022-07-23T02:43:42;21.33;;;15.63;;
21036;SDS011;10677;50.942;4.028;2022-07-23T02:46:07;21.25;;;15.57;;
21036;SDS011;10677;50.942;4.028;2022-07-23T02:48:33;18.33;;;14.75;;
21036;SDS011;10677;50.942;4.028;2022-07-23T02:50:59;21.85;;;16.65;;
21036;SDS011;10677;50.942;4.028;2022-07-23T02:53:25;21.48;;;16.80;;
21036;SDS011;10677;50.942;4.028;2022-07-23T02:55:51;23.38;;;16.55;;
21036;SDS011;10677;50.942;4.028;2022-07-23T02:58:16;22.77;;;16.77;;
21036;SDS011;10677;50.942;4.028;2022-07-23T03:00:43;24.00;;;18.88;;
21036;SDS011;10677;50.942;4.028;2022-07-23T03:03:08;24.05;;;17.65;;
21036;SDS011;10677;50.942;4.028;2022-07-23T03:05:34;24.27;;;17.48;;
21036;SDS011;10677;50.942;4.028;2022-07-23T03:08:00;24.67;;;18.92;;
21036;SDS011;10677;50.942;4.028;2022-07-23T03:10:26;24.60;;;18.33;;
21036;SDS011;10677;50.942;4.028;2022-07-23T03:12:51;24.17;;;17.90;;
21036;SDS011;10677;50.942;4.028;2022-07-23T03:15:17;32.53;;;21.75;;
21036;SDS011;10677;50.942;4.028;2022-07-23T03:17:43;25.25;;;17.63;;
21036;SDS011;10677;50.942;4.028;2022-07-23T03:20:09;23.88;;;18.85;;
21036;SDS011;10677;50.942;4.028;2022-07-23T03:22:35;24.70;;;17.90;;
21036;SDS011;10677;50.942;4.028;2022-07-23T03:25:01;25.75;;;17.27;;
21036;SDS011;10677;50.942;4.028;2022-07-23T03:27:27;27.25;;;17.48;;
21036;SDS011;10677;50.942;4.028;2022-07-23T03:29:55;25.17;;;17.73;;
21036;SDS011;10677;50.942;4.028;2022-07-23T03:32:22;22.45;;;17.35;;
21036;SDS011;10677;50.942;4.028;2022-07-23T03:34:49;21.90;;;17.63;;
21036;SDS011;10677;50.942;4.028;2022-07-23T03:37:15;25.15;;;17.70;;
21036;SDS011;10677;50.942;4.028;2022-07-23T03:39:41;25.25;;;16.80;;
21036;SDS011;10677;50.942;4.028;2022-07-23T03:42:07;24.75;;;17.08;;
21036;SDS011;10677;50.942;4.028;2022-07-23T03:44:33;23.58;;;16.25;;
21036;SDS011;10677;50.942;4.028;2022-07-23T03:46:59;22.88;;;16.33;;
21036;SDS011;10677;50.942;4.028;2022-07-23T03:49:25;23.45;;;16.25;;
21036;SDS011;10677;50.942;4.028;2022-07-23T03:51:50;22.00;;;15.45;;
21036;SDS011;10677;50.942;4.028;2022-07-23T03:54:16;27.45;;;17.52;;
21036;SDS011;10677;50.942;4.028;2022-07-23T03:56:42;22.38;;;15.90;;
21036;SDS011;10677;50.942;4.028;2022-07-23T03:59:08;25.40;;;16.30;;
21036;SDS011;10677;50.942;4.028;2022-07-23T04:01:34;22.67;;;16.00;;
21036;SDS011;10677;50.942;4.028;2022-07-23T04:04:00;25.20;;;16.65;;
21036;SDS011;10677;50.942;4.028;2022-07-23T04:06:26;24.80;;;16.73;;
21036;SDS011;10677;50.942;4.028;2022-07-23T04:08:51;22.90;;;17.55;;
21036;SDS011;10677;50.942;4.028;2022-07-23T04:11:17;24.63;;;17.83;;
21036;SDS011;10677;50.942;4.028;2022-07-23T04:13:43;25.75;;;17.35;;
21036;SDS011;10677;50.942;4.028;2022-07-23T04:16:08;24.20;;;16.70;;
21036;SDS011;10677;50.942;4.028;2022-07-23T04:18:34;24.20;;;17.48;;
21036;SDS011;10677;50.942;4.028;2022-07-23T04:20:59;25.73;;;17.45;;
21036;SDS011;10677;50.942;4.028;2022-07-23T04:23:25;28.92;;;18.30;;
21036;SDS011;10677;50.942;4.028;2022-07-23T04:25:51;24.23;;;16.55;;
21036;SDS011;10677;50.942;4.028;2022-07-23T04:28:16;23.70;;;16.90;;
21036;SDS011;10677;50.942;4.028;2022-07-23T04:30:42;21.35;;;16.70;;
21036;SDS011;10677;50.942;4.028;2022-07-23T04:33:08;24.13;;;16.08;;
21036;SDS011;10677;50.942;4.028;2022-07-23T04:35:34;25.48;;;15.40;;
21036;SDS011;10677;50.942;4.028;2022-07-23T04:38:00;22.08;;;16.23;;
21036;SDS011;10677;50.942;4.028;2022-07-23T04:40:26;20.33;;;15.57;;
21036;SDS011;10677;50.942;4.028;2022-07-23T04:42:52;21.85;;;15.48;;
21036;SDS011;10677;50.942;4.028;2022-07-23T04:45:17;22.02;;;14.95;;
21036;SDS011;10677;50.942;4.028;2022-07-23T04:47:43;22.13;;;15.20;;
21036;SDS011;10677;50.942;4.028;2022-07-23T04:50:08;22.67;;;15.10;;
21036;SDS011;10677;50.942;4.028;2022-07-23T04:52:34;20.52;;;15.25;;
21036;SDS011;10677;50.942;4.028;2022-07-23T04:55:00;21.35;;;15.95;;
21036;SDS011;10677;50.942;4.028;2022-07-23T04:57:25;22.83;;;16.33;;
21036;SDS011;10677;50.942;4.028;2022-07-23T04:59:51;19.67;;;15.10;;
21036;SDS011;10677;50.942;4.028;2022-07-23T05:02:16;20.25;;;14.68;;
21036;SDS011;10677;50.942;4.028;2022-07-23T05:04:42;26.98;;;17.25;;
21036;SDS011;10677;50.942;4.028;2022-07-23T05:07:08;23.63;;;16.00;;
21036;SDS011;10677;50.942;4.028;2022-07-23T05:09:33;26.98;;;15.57;;
21036;SDS011;10677;50.942;4.028;2022-07-23T05:11:59;22.13;;;15.38;;
21036;SDS011;10677;50.942;4.028;2022-07-23T05:14:25;19.75;;;15.20;;
21036;SDS011;10677;50.942;4.028;2022-07-23T05:16:51;23.85;;;15.30;;
21036;SDS011;10677;50.942;4.028;2022-07-23T05:19:17;21.15;;;14.77;;
21036;SDS011;10677;50.942;4.028;2022-07-23T05:21:42;20.90;;;15.25;;
21036;SDS011;10677;50.942;4.028;2022-07-23T05:24:08;18.77;;;15.15;;
21036;SDS011;10677;50.942;4.028;2022-07-23T05:26:34;19.67;;;13.95;;
21036;SDS011;10677;50.942;4.028;2022-07-23T05:28:59;21.67;;;15.18;;
21036;SDS011;10677;50.942;4.028;2022-07-23T05:31:25;20.27;;;14.85;;
21036;SDS011;10677;50.942;4.028;2022-07-23T05:33:50;23.63;;;14.93;;
21036;SDS011;10677;50.942;4.028;2022-07-23T05:36:16;21.00;;;14.77;;
21036;SDS011;10677;50.942;4.028;2022-07-23T05:38:41;22.25;;;15.45;;
21036;SDS011;10677;50.942;4.028;2022-07-23T05:41:07;18.75;;;14.13;;
21036;SDS011;10677;50.942;4.028;2022-07-23T05:43:33;19.02;;;13.70;;
21036;SDS011;10677;50.942;4.028;2022-07-23T05:45:58;22.13;;;14.02;;
21036;SDS011;10677;50.942;4.028;2022-07-23T05:48:24;18.48;;;13.45;;
21036;SDS011;10677;50.942;4.028;2022-07-23T05:50:49;20.90;;;15.07;;
21036;SDS011;10677;50.942;4.028;2022-07-23T05:53:15;18.48;;;14.93;;
21036;SDS011;10677;50.942;4.028;2022-07-23T05:55:41;28.00;;;16.23;;
21036;SDS011;10677;50.942;4.028;2022-07-23T05:58:06;19.17;;;13.35;;
21036;SDS011;10677;50.942;4.028;2022-07-23T06:00:33;18.98;;;13.77;;
21036;SDS011;10677;50.942;4.028;2022-07-23T06:02:59;19.83;;;13.85;;
21036;SDS011;10677;50.942;4.028;2022-07-23T06:05:24;17.65;;;13.32;;
21036;SDS011;10677;50.942;4.028;2022-07-23T06:07:50;20.90;;;13.20;;
21036;SDS011;10677;50.942;4.028;2022-07-23T06:10:16;16.52;;;12.50;;
21036;SDS011;10677;50.942;4.028;2022-07-23T06:12:42;22.80;;;13.40;;
21036;SDS011;10677;50.942;4.028;2022-07-23T06:15:08;15.48;;;12.27;;
21036;SDS011;10677;50.942;4.028;2022-07-23T06:17:34;18.33;;;13.07;;
21036;SDS011;10677;50.942;4.028;2022-07-23T06:19:59;17.15;;;13.43;;
21036;SDS011;10677;50.942;4.028;2022-07-23T06:22:25;16.92;;;12.38;;
21036;SDS011;10677;50.942;4.028;2022-07-23T06:24:51;17.42;;;12.85;;
21036;SDS011;10677;50.942;4.028;2022-07-23T06:27:17;18.50;;;12.68;;
21036;SDS011;10677;50.942;4.028;2022-07-23T06:29:43;20.08;;;12.85;;
21036;SDS011;10677;50.942;4.028;2022-07-23T06:32:09;16.33;;;13.45;;
21036;SDS011;10677;50.942;4.028;2022-07-23T06:34:34;18.40;;;14.05;;
21036;SDS011;10677;50.942;4.028;2022-07-23T06:37:00;16.88;;;13.80;;
21036;SDS011;10677;50.942;4.028;2022-07-23T06:39:26;20.60;;;13.70;;
21036;SDS011;10677;50.942;4.028;2022-07-23T06:41:51;17.38;;;13.38;;
21036;SDS011;10677;50.942;4.028;2022-07-23T06:44:17;19.45;;;14.52;;
21036;SDS011;10677;50.942;4.028;2022-07-23T06:46:43;17.33;;;12.23;;
21036;SDS011;10677;50.942;4.028;2022-07-23T06:49:09;15.80;;;12.35;;
21036;SDS011;10677;50.942;4.028;2022-07-23T06:51:35;16.27;;;11.85;;
21036;SDS011;10677;50.942;4.028;2022-07-23T06:54:00;18.48;;;11.35;;
21036;SDS011;10677;50.942;4.028;2022-07-23T06:56:26;15.70;;;11.90;;
21036;SDS011;10677;50.942;4.028;2022-07-23T06:58:52;20.38;;;13.32;;
21036;SDS011;10677;50.942;4.028;2022-07-23T07:01:18;18.75;;;12.00;;
21036;SDS011;10677;50.942;4.028;2022-07-23T07:03:43;16.85;;;11.63;;
21036;SDS011;10677;50.942;4.028;2022-07-23T07:06:09;17.60;;;11.82;;
21036;SDS011;10677;50.942;4.028;2022-07-23T07:08:35;16.38;;;11.40;;
21036;SDS011;10677;50.942;4.028;2022-07-23T07:11:01;13.77;;;10.80;;
21036;SDS011;10677;50.942;4.028;2022-07-23T07:13:26;18.95;;;12.80;;
21036;SDS011;10677;50.942;4.028;2022-07-23T07:15:52;21.23;;;13.07;;
21036;SDS011;10677;50.942;4.028;2022-07-23T07:18:17;18.27;;;12.00;;
21036;SDS011;10677;50.942;4.028;2022-07-23T07:20:43;19.70;;;13.07;;
21036;SDS011;10677;50.942;4.028;2022-07-23T07:23:09;20.25;;;12.45;;
21036;SDS011;10677;50.942;4.028;2022-07-23T07:25:34;15.43;;;11.93;;
21036;SDS011;10677;50.942;4.028;2022-07-23T07:28:00;17.80;;;11.82;;
21036;SDS011;10677;50.942;4.028;2022-07-23T07:30:26;17.30;;;10.88;;
21036;SDS011;10677;50.942;4.028;2022-07-23T07:32:51;18.25;;;11.43;;
21036;SDS011;10677;50.942;4.028;2022-07-23T07:35:17;14.73;;;11.45;;
21036;SDS011;10677;50.942;4.028;2022-07-23T07:37:43;15.18;;;11.23;;
21036;SDS011;10677;50.942;4.028;2022-07-23T07:40:08;15.27;;;11.27;;
21036;SDS011;10677;50.942;4.028;2022-07-23T07:42:34;15.25;;;10.82;;
21036;SDS011;10677;50.942;4.028;2022-07-23T07:45:08;14.27;;;11.15;;
21036;SDS011;10677;50.942;4.028;2022-07-23T07:47:34;16.10;;;10.85;;
21036;SDS011;10677;50.942;4.028;2022-07-23T07:50:00;14.85;;;11.27;;
21036;SDS011;10677;50.942;4.028;2022-07-23T07:52:25;16.55;;;10.68;;
21036;SDS011;10677;50.942;4.028;2022-07-23T07:54:51;15.52;;;11.85;;
21036;SDS011;10677;50.942;4.028;2022-07-23T07:57:17;16.85;;;11.50;;
21036;SDS011;10677;50.942;4.028;2022-07-23T07:59:42;16.75;;;10.70;;
21036;SDS011;10677;50.942;4.028;2022-07-23T08:02:08;12.70;;;9.88;;
21036;SDS011;10677;50.942;4.028;2022-07-23T08:04:33;15.70;;;9.70;;
21036;SDS011;10677;50.942;4.028;2022-07-23T08:06:59;13.43;;;9.10;;
21036;SDS011;10677;50.942;4.028;2022-07-23T08:09:25;14.32;;;9.18;;
21036;SDS011;10677;50.942;4.028;2022-07-23T08:11:50;16.90;;;9.68;;
21036;SDS011;10677;50.942;4.028;2022-07-23T08:14:16;12.40;;;9.85;;
21036;SDS011;10677;50.942;4.028;2022-07-23T08:16:42;14.88;;;9.85;;
21036;SDS011;10677;50.942;4.028;2022-07-23T08:19:08;12.05;;;8.48;;
21036;SDS011;10677;50.942;4.028;2022-07-23T08:21:34;12.18;;;9.18;;
21036;SDS011;10677;50.942;4.028;2022-07-23T08:23:59;12.70;;;8.45;;
21036;SDS011;10677;50.942;4.028;2022-07-23T08:26:25;16.75;;;8.77;;
21036;SDS011;10677;50.942;4.028;2022-07-23T08:28:50;11.18;;;7.90;;
21036;SDS011;10677;50.942;4.028;2022-07-23T08:31:16;10.45;;;7.72;;
21036;SDS011;10677;50.942;4.028;2022-07-23T08:33:42;9.32;;;7.38;;
21036;SDS011;10677;50.942;4.028;2022-07-23T08:36:08;10.27;;;7.38;;
21036;SDS011;10677;50.942;4.028;2022-07-23T08:38:33;9.88;;;6.50;;
21036;SDS011;10677;50.942;4.028;2022-07-23T08:41:00;10.82;;;7.05;;
21036;SDS011;10677;50.942;4.028;2022-07-23T08:43:27;12.00;;;7.05;;
21036;SDS011;10677;50.942;4.028;2022-07-23T08:45:55;10.55;;;6.97;;
21036;SDS011;10677;50.942;4.028;2022-07-23T08:48:24;12.18;;;6.93;;
21036;SDS011;10677;50.942;4.028;2022-07-23T08:50:52;8.02;;;6.63;;
21036;SDS011;10677;50.942;4.028;2022-07-23T08:53:23;9.65;;;6.63;;
21036;SDS011;10677;50.942;4.028;2022-07-23T08:55:51;10.70;;;5.78;;
21036;SDS011;10677;50.942;4.028;2022-07-23T08:58:18;9.25;;;6.18;;
21036;SDS011;10677;50.942;4.028;2022-07-23T09:00:44;9.15;;;6.43;;
21036;SDS011;10677;50.942;4.028;2022-07-23T09:03:18;7.75;;;5.55;;
21036;SDS011;10677;50.942;4.028;2022-07-23T09:05:46;8.45;;;5.18;;
21036;SDS011;10677;50.942;4.028;2022-07-23T09:10:57;10.40;;;5.63;;
21036;SDS011;10677;50.942;4.028;2022-07-23T09:13:26;8.38;;;5.25;;
21036;SDS011;10677;50.942;4.028;2022-07-23T09:16:00;8.63;;;4.90;;
21036;SDS011;10677;50.942;4.028;2022-07-23T09:18:33;8.13;;;4.82;;
21036;SDS011;10677;50.942;4.028;2022-07-23T09:21:17;6.55;;;4.63;;
21036;SDS011;10677;50.942;4.028;2022-07-23T09:28:54;8.90;;;4.68;;
21036;SDS011;10677;50.942;4.028;2022-07-23T09:31:31;7.30;;;5.10;;
21036;SDS011;10677;50.942;4.028;2022-07-23T09:34:30;8.23;;;5.53;;
21036;SDS011;10677;50.942;4.028;2022-07-23T09:37:10;9.32;;;4.82;;
21036;SDS011;10677;50.942;4.028;2022-07-23T09:39:38;8.43;;;4.65;;
21036;SDS011;10677;50.942;4.028;2022-07-23T09:42:17;7.05;;;4.70;;
21036;SDS011;10677;50.942;4.028;2022-07-23T09:44:44;8.75;;;5.00;;
21036;SDS011;10677;50.942;4.028;2022-07-23T09:47:14;6.72;;;3.92;;
21036;SDS011;10677;50.942;4.028;2022-07-23T09:49:40;6.65;;;4.35;;
21036;SDS011;10677;50.942;4.028;2022-07-23T09:52:05;6.97;;;4.03;;
21036;SDS011;10677;50.942;4.028;2022-07-23T09:54:33;10.95;;;4.88;;
21036;SDS011;10677;50.942;4.028;2022-07-23T09:57:05;6.97;;;3.80;;
21036;SDS011;10677;50.942;4.028;2022-07-23T09:59:34;6.60;;;3.80;;
21036;SDS011;10677;50.942;4.028;2022-07-23T10:02:02;6.60;;;4.32;;
21036;SDS011;10677;50.942;4.028;2022-07-23T10:04:30;6.00;;;3.40;;
21036;SDS011;10677;50.942;4.028;2022-07-23T10:06:58;6.97;;;4.20;;
21036;SDS011;10677;50.942;4.028;2022-07-23T10:09:32;10.02;;;4.07;;
21036;SDS011;10677;50.942;4.028;2022-07-23T10:12:00;7.20;;;4.45;;
21036;SDS011;10677;50.942;4.028;2022-07-23T10:14:42;5.75;;;3.42;;
21036;SDS011;10677;50.942;4.028;2022-07-23T10:17:08;4.45;;;3.10;;
21036;SDS011;10677;50.942;4.028;2022-07-23T10:19:34;7.90;;;3.47;;
21036;SDS011;10677;50.942;4.028;2022-07-23T10:22:04;6.80;;;3.13;;
21036;SDS011;10677;50.942;4.028;2022-07-23T10:25:12;5.93;;;2.83;;
21036;SDS011;10677;50.942;4.028;2022-07-23T10:30:28;5.80;;;3.10;;
21036;SDS011;10677;50.942;4.028;2022-07-23T10:36:07;4.63;;;3.05;;
21036;SDS011;10677;50.942;4.028;2022-07-23T10:38:58;5.85;;;3.20;;
21036;SDS011;10677;50.942;4.028;2022-07-23T10:41:49;5.55;;;3.30;;
21036;SDS011;10677;50.942;4.028;2022-07-23T10:44:20;7.63;;;3.72;;
21036;SDS011;10677;50.942;4.028;2022-07-23T10:49:33;5.45;;;3.38;;
21036;SDS011;10677;50.942;4.028;2022-07-23T10:54:41;5.13;;;2.88;;
21036;SDS011;10677;50.942;4.028;2022-07-23T10:57:27;4.80;;;3.30;;
21036;SDS011;10677;50.942;4.028;2022-07-23T11:02:34;4.10;;;2.88;;
21036;SDS011;10677;50.942;4.028;2022-07-23T11:05:01;6.43;;;2.88;;
21036;SDS011;10677;50.942;4.028;2022-07-23T11:07:29;5.28;;;2.90;;
21036;SDS011;10677;50.942;4.028;2022-07-23T11:09:55;5.45;;;2.90;;
21036;SDS011;10677;50.942;4.028;2022-07-23T11:15:06;5.00;;;3.22;;
21036;SDS011;10677;50.942;4.028;2022-07-23T11:17:37;4.18;;;2.35;;
21036;SDS011;10677;50.942;4.028;2022-07-23T11:20:24;6.25;;;3.00;;
21036;SDS011;10677;50.942;4.028;2022-07-23T11:22:51;4.90;;;2.65;;
21036;SDS011;10677;50.942;4.028;2022-07-23T11:27:47;4.82;;;2.08;;
21036;SDS011;10677;50.942;4.028;2022-07-23T11:32:52;5.50;;;2.55;;
21036;SDS011;10677;50.942;4.028;2022-07-23T11:35:23;5.43;;;2.90;;
21036;SDS011;10677;50.942;4.028;2022-07-23T11:37:53;7.07;;;3.28;;
21036;SDS011;10677;50.942;4.028;2022-07-23T11:40:29;7.05;;;3.35;;
21036;SDS011;10677;50.942;4.028;2022-07-23T11:42:56;4.30;;;3.25;;
21036;SDS011;10677;50.942;4.028;2022-07-23T11:45:22;4.65;;;3.13;;
21036;SDS011;10677;50.942;4.028;2022-07-23T11:47:50;6.20;;;2.90;;
21036;SDS011;10677;50.942;4.028;2022-07-23T11:50:15;7.00;;;3.00;;
21036;SDS011;10677;50.942;4.028;2022-07-23T11:52:41;5.78;;;3.00;;
21036;SDS011;10677;50.942;4.028;2022-07-23T11:55:08;6.38;;;3.00;;
21036;SDS011;10677;50.942;4.028;2022-07-23T11:57:36;7.88;;;2.65;;
21036;SDS011;10677;50.942;4.028;2022-07-23T12:00:07;4.35;;;2.58;;
21036;SDS011;10677;50.942;4.028;2022-07-23T12:02:36;4.43;;;2.78;;
21036;SDS011;10677;50.942;4.028;2022-07-23T12:05:03;4.78;;;2.60;;
21036;SDS011;10677;50.942;4.028;2022-07-23T12:07:34;6.63;;;2.97;;
21036;SDS011;10677;50.942;4.028;2022-07-23T12:10:08;4.65;;;2.85;;
21036;SDS011;10677;50.942;4.028;2022-07-23T12:12:38;4.85;;;2.63;;
21036;SDS011;10677;50.942;4.028;2022-07-23T12:15:06;6.07;;;2.80;;
21036;SDS011;10677;50.942;4.028;2022-07-23T12:17:33;5.40;;;2.72;;
21036;SDS011;10677;50.942;4.028;2022-07-23T12:20:04;6.72;;;2.80;;
21036;SDS011;10677;50.942;4.028;2022-07-23T12:22:50;4.75;;;2.65;;
21036;SDS011;10677;50.942;4.028;2022-07-23T12:25:19;4.65;;;2.60;;
21036;SDS011;10677;50.942;4.028;2022-07-23T12:27:46;5.03;;;2.80;;
21036;SDS011;10677;50.942;4.028;2022-07-23T12:30:29;6.45;;;2.95;;
21036;SDS011;10677;50.942;4.028;2022-07-23T12:33:02;4.80;;;2.42;;
21036;SDS011;10677;50.942;4.028;2022-07-23T12:35:33;4.68;;;2.33;;
21036;SDS011;10677;50.942;4.028;2022-07-23T12:38:11;4.72;;;2.20;;
21036;SDS011;10677;50.942;4.028;2022-07-23T12:40:43;3.85;;;2.40;;
21036;SDS011;10677;50.942;4.028;2022-07-23T12:45:49;6.80;;;2.42;;
21036;SDS011;10677;50.942;4.028;2022-07-23T12:48:27;5.10;;;2.10;;
21036;SDS011;10677;50.942;4.028;2022-07-23T12:51:18;4.30;;;2.30;;
21036;SDS011;10677;50.942;4.028;2022-07-23T12:53:56;4.38;;;2.40;;
21036;SDS011;10677;50.942;4.028;2022-07-23T12:56:32;6.00;;;2.72;;
21036;SDS011;10677;50.942;4.028;2022-07-23T12:59:04;5.22;;;2.35;;
21036;SDS011;10677;50.942;4.028;2022-07-23T13:01:54;4.90;;;2.58;;
21036;SDS011;10677;50.942;4.028;2022-07-23T13:04:20;4.45;;;2.33;;
21036;SDS011;10677;50.942;4.028;2022-07-23T13:06:48;3.28;;;2.38;;
21036;SDS011;10677;50.942;4.028;2022-07-23T13:09:16;6.68;;;2.47;;
21036;SDS011;10677;50.942;4.028;2022-07-23T13:11:44;5.53;;;2.30;;
21036;SDS011;10677;50.942;4.028;2022-07-23T13:14:11;6.82;;;3.15;;
21036;SDS011;10677;50.942;4.028;2022-07-23T13:16:37;6.82;;;2.15;;
21036;SDS011;10677;50.942;4.028;2022-07-23T13:19:04;4.63;;;3.05;;
21036;SDS011;10677;50.942;4.028;2022-07-23T13:21:31;4.82;;;2.20;;
21036;SDS011;10677;50.942;4.028;2022-07-23T13:23:57;3.90;;;2.20;;
21036;SDS011;10677;50.942;4.028;2022-07-23T13:26:23;6.40;;;2.63;;
21036;SDS011;10677;50.942;4.028;2022-07-23T13:28:49;5.43;;;2.33;;
21036;SDS011;10677;50.942;4.028;2022-07-23T13:31:15;5.90;;;2.88;;
21036;SDS011;10677;50.942;4.028;2022-07-23T13:33:41;4.03;;;2.55;;
21036;SDS011;10677;50.942;4.028;2022-07-23T13:36:07;6.40;;;2.55;;
21036;SDS011;10677;50.942;4.028;2022-07-23T13:38:33;5.05;;;2.75;;
21036;SDS011;10677;50.942;4.028;2022-07-23T13:40:59;5.10;;;2.70;;
21036;SDS011;10677;50.942;4.028;2022-07-23T13:43:25;4.38;;;2.42;;
21036;SDS011;10677;50.942;4.028;2022-07-23T13:45:51;4.97;;;2.67;;
21036;SDS011;10677;50.942;4.028;2022-07-23T13:48:18;5.43;;;2.40;;
21036;SDS011;10677;50.942;4.028;2022-07-23T13:50:44;6.38;;;2.60;;
21036;SDS011;10677;50.942;4.028;2022-07-23T13:53:13;3.55;;;2.38;;
21036;SDS011;10677;50.942;4.028;2022-07-23T13:55:40;7.05;;;2.88;;
21036;SDS011;10677;50.942;4.028;2022-07-23T13:58:07;4.78;;;2.50;;
21036;SDS011;10677;50.942;4.028;2022-07-23T14:00:34;4.35;;;2.60;;
21036;SDS011;10677;50.942;4.028;2022-07-23T14:03:00;4.57;;;2.50;;
21036;SDS011;10677;50.942;4.028;2022-07-23T14:05:26;6.20;;;2.38;;
21036;SDS011;10677;50.942;4.028;2022-07-23T14:07:52;5.72;;;2.20;;
21036;SDS011;10677;50.942;4.028;2022-07-23T14:10:20;5.78;;;2.28;;
21036;SDS011;10677;50.942;4.028;2022-07-23T14:12:46;3.88;;;2.60;;
21036;SDS011;10677;50.942;4.028;2022-07-23T14:15:13;5.63;;;2.72;;
21036;SDS011;10677;50.942;4.028;2022-07-23T14:17:39;3.55;;;2.50;;
21036;SDS011;10677;50.942;4.028;2022-07-23T14:20:06;6.35;;;3.03;;
21036;SDS011;10677;50.942;4.028;2022-07-23T14:22:33;4.80;;;2.53;;
21036;SDS011;10677;50.942;4.028;2022-07-23T14:24:59;5.13;;;2.97;;
21036;SDS011;10677;50.942;4.028;2022-07-23T14:27:26;4.63;;;2.50;;
21036;SDS011;10677;50.942;4.028;2022-07-23T14:29:53;5.97;;;2.85;;
21036;SDS011;10677;50.942;4.028;2022-07-23T14:32:18;4.90;;;2.78;;
21036;SDS011;10677;50.942;4.028;2022-07-23T14:34:44;7.18;;;3.17;;
21036;SDS011;10677;50.942;4.028;2022-07-23T14:37:10;6.80;;;2.75;;
21036;SDS011;10677;50.942;4.028;2022-07-23T14:39:37;4.57;;;3.25;;
21036;SDS011;10677;50.942;4.028;2022-07-23T14:42:08;5.28;;;2.92;;
21036;SDS011;10677;50.942;4.028;2022-07-23T14:44:34;5.18;;;3.38;;
21036;SDS011;10677;50.942;4.028;2022-07-23T14:47:01;5.55;;;2.50;;
21036;SDS011;10677;50.942;4.028;2022-07-23T14:49:29;7.18;;;3.13;;
21036;SDS011;10677;50.942;4.028;2022-07-23T14:51:55;5.95;;;3.05;;
21036;SDS011;10677;50.942;4.028;2022-07-23T14:54:21;4.93;;;2.70;;
21036;SDS011;10677;50.942;4.028;2022-07-23T14:56:46;7.50;;;2.83;;
21036;SDS011;10677;50.942;4.028;2022-07-23T14:59:12;4.50;;;2.72;;
21036;SDS011;10677;50.942;4.028;2022-07-23T15:01:38;6.45;;;3.17;;
21036;SDS011;10677;50.942;4.028;2022-07-23T15:04:05;9.55;;;3.17;;
21036;SDS011;10677;50.942;4.028;2022-07-23T15:06:32;6.88;;;3.28;;